Portada
METAR-TAF:

METAR-TAF

Aeropuertos :

Monte Scuro, Italia

latitud: 39-20N, longitud: 016-24E, altitud: 1710 m

Observación

El informe se hizo hace 31 minutos, a las 10:55 UTC
Viento 6 kt del norte-noreste
Temperatura 1°C
Humedad 80%
Presión 1016 hPa
Visibilidad 10 km o más
Cielo nuboso a una altura de 400 ft

METAR: LIBQ 201055Z 03006KT 9999 BKN004 01/M02 Q1016 RMK BKN VIS MIN 9999

Hora: 12:26 (11:26 UTC)


TAF: falta

Observaciones y pronósticos meteorológicos de más de 4000 aeropuertos (mensajes METAR y TAF).

Los puntos amarillos y rojos representan las estaciones disponibles.

Ponga el ratón en el punto deseado para ver el nombre de la estación.

Haga clic para ver las observaciones y los pronósticos meteorológicos.

Para cambiar el mapa : haga clic en los botones verdes con una cruz de color negro para hacer un zoom, en el botón verde con un guión para alejar o en las flechas verdes para mapas adyacentes.


METAR-TAF: